sensor_id;sensor_type;location;lat;lon;timestamp;temperature;humidity
5134;DHT22;2585;48.696;10.066;2023-11-18T00:00:56;3.90;95.20
5134;DHT22;2585;48.696;10.066;2023-11-18T00:03:22;3.90;95.20
5134;DHT22;2585;48.696;10.066;2023-11-18T00:05:49;3.90;95.20
5134;DHT22;2585;48.696;10.066;2023-11-18T00:08:16;3.90;95.20
5134;DHT22;2585;48.696;10.066;2023-11-18T00:10:43;3.90;95.20
5134;DHT22;2585;48.696;10.066;2023-11-18T00:13:10;3.80;95.20
5134;DHT22;2585;48.696;10.066;2023-11-18T00:15:37;3.80;95.20
5134;DHT22;2585;48.696;10.066;2023-11-18T00:18:04;3.80;95.20
5134;DHT22;2585;48.696;10.066;2023-11-18T00:20:31;3.80;95.20
5134;DHT22;2585;48.696;10.066;2023-11-18T00:22:58;3.80;95.20
5134;DHT22;2585;48.696;10.066;2023-11-18T00:25:25;3.80;95.20
5134;DHT22;2585;48.696;10.066;2023-11-18T00:27:52;3.80;95.20
5134;DHT22;2585;48.696;10.066;2023-11-18T00:30:18;3.80;95.20
5134;DHT22;2585;48.696;10.066;2023-11-18T00:32:45;3.80;95.20
5134;DHT22;2585;48.696;10.066;2023-11-18T00:35:12;3.80;95.20
5134;DHT22;2585;48.696;10.066;2023-11-18T00:37:39;3.80;95.20
5134;DHT22;2585;48.696;10.066;2023-11-18T00:40:08;3.80;95.20
5134;DHT22;2585;48.696;10.066;2023-11-18T00:42:36;3.90;95.20
5134;DHT22;2585;48.696;10.066;2023-11-18T00:45:03;3.90;95.20
5134;DHT22;2585;48.696;10.066;2023-11-18T00:47:30;3.90;95.20
5134;DHT22;2585;48.696;10.066;2023-11-18T00:49:57;3.90;95.20
5134;DHT22;2585;48.696;10.066;2023-11-18T00:52:27;3.90;95.20
5134;DHT22;2585;48.696;10.066;2023-11-18T00:54:54;3.80;95.20
5134;DHT22;2585;48.696;10.066;2023-11-18T00:57:21;3.80;95.20
5134;DHT22;2585;48.696;10.066;2023-11-18T00:59:47;3.80;95.20
5134;DHT22;2585;48.696;10.066;2023-11-18T01:02:14;3.80;95.20
5134;DHT22;2585;48.696;10.066;2023-11-18T01:04:41;3.90;95.20
5134;DHT22;2585;48.696;10.066;2023-11-18T01:07:08;3.90;95.20
5134;DHT22;2585;48.696;10.066;2023-11-18T01:09:38;3.90;95.20
5134;DHT22;2585;48.696;10.066;2023-11-18T01:12:06;3.90;95.20
5134;DHT22;2585;48.696;10.066;2023-11-18T01:14:37;3.90;95.20
5134;DHT22;2585;48.696;10.066;2023-11-18T01:17:06;3.90;95.20
5134;DHT22;2585;48.696;10.066;2023-11-18T01:19:33;3.90;95.20
5134;DHT22;2585;48.696;10.066;2023-11-18T01:22:02;3.90;95.20
5134;DHT22;2585;48.696;10.066;2023-11-18T01:24:33;3.90;95.20
5134;DHT22;2585;48.696;10.066;2023-11-18T01:27:00;3.90;95.20
5134;DHT22;2585;48.696;10.066;2023-11-18T01:29:27;3.90;95.20
5134;DHT22;2585;48.696;10.066;2023-11-18T01:31:54;3.90;95.20
5134;DHT22;2585;48.696;10.066;2023-11-18T01:34:25;3.90;95.20
5134;DHT22;2585;48.696;10.066;2023-11-18T01:36:52;3.90;95.20
5134;DHT22;2585;48.696;10.066;2023-11-18T01:39:20;3.90;95.20
5134;DHT22;2585;48.696;10.066;2023-11-18T01:41:47;4.00;95.20
5134;DHT22;2585;48.696;10.066;2023-11-18T01:44:16;4.00;95.20
5134;DHT22;2585;48.696;10.066;2023-11-18T01:46:44;4.00;95.20
5134;DHT22;2585;48.696;10.066;2023-11-18T01:49:13;4.00;95.20
5134;DHT22;2585;48.696;10.066;2023-11-18T01:51:45;4.00;95.20
5134;DHT22;2585;48.696;10.066;2023-11-18T01:54:13;4.00;95.20
5134;DHT22;2585;48.696;10.066;2023-11-18T01:56:47;4.00;95.20
5134;DHT22;2585;48.696;10.066;2023-11-18T01:59:15;4.00;95.20
5134;DHT22;2585;48.696;10.066;2023-11-18T02:01:47;4.00;95.20
5134;DHT22;2585;48.696;10.066;2023-11-18T02:04:16;4.00;95.20
5134;DHT22;2585;48.696;10.066;2023-11-18T02:06:48;4.10;95.30
5134;DHT22;2585;48.696;10.066;2023-11-18T02:09:17;4.10;95.30
5134;DHT22;2585;48.696;10.066;2023-11-18T02:11:53;4.10;95.30
5134;DHT22;2585;48.696;10.066;2023-11-18T02:14:22;4.10;95.30
5134;DHT22;2585;48.696;10.066;2023-11-18T02:16:53;4.10;95.30
5134;DHT22;2585;48.696;10.066;2023-11-18T02:19:24;4.10;95.30
5134;DHT22;2585;48.696;10.066;2023-11-18T02:21:52;4.10;95.30
5134;DHT22;2585;48.696;10.066;2023-11-18T02:24:30;4.10;95.30
5134;DHT22;2585;48.696;10.066;2023-11-18T02:27:00;4.10;95.30
5134;DHT22;2585;48.696;10.066;2023-11-18T02:29:30;4.00;95.20
5134;DHT22;2585;48.696;10.066;2023-11-18T02:32:23;4.00;95.20
5134;DHT22;2585;48.696;10.066;2023-11-18T02:35:22;4.00;95.20
5134;DHT22;2585;48.696;10.066;2023-11-18T02:37:50;4.10;95.30
5134;DHT22;2585;48.696;10.066;2023-11-18T02:40:28;4.00;95.20
5134;DHT22;2585;48.696;10.066;2023-11-18T02:42:58;4.00;95.20
5134;DHT22;2585;48.696;10.066;2023-11-18T02:45:26;4.10;95.30
5134;DHT22;2585;48.696;10.066;2023-11-18T02:47:53;4.00;95.20
5134;DHT22;2585;48.696;10.066;2023-11-18T02:50:25;4.00;95.20
5134;DHT22;2585;48.696;10.066;2023-11-18T02:52:52;4.10;95.30
5134;DHT22;2585;48.696;10.066;2023-11-18T02:55:19;4.10;95.30
5134;DHT22;2585;48.696;10.066;2023-11-18T02:57:49;4.00;95.20
5134;DHT22;2585;48.696;10.066;2023-11-18T03:00:17;4.00;95.20
5134;DHT22;2585;48.696;10.066;2023-11-18T03:02:50;4.00;95.20
5134;DHT22;2585;48.696;10.066;2023-11-18T03:05:20;4.10;95.20
5134;DHT22;2585;48.696;10.066;2023-11-18T03:07:48;4.10;95.20
5134;DHT22;2585;48.696;10.066;2023-11-18T03:10:23;4.10;95.20
5134;DHT22;2585;48.696;10.066;2023-11-18T03:12:51;4.00;95.20
5134;DHT22;2585;48.696;10.066;2023-11-18T03:15:22;3.90;95.20
5134;DHT22;2585;48.696;10.066;2023-11-18T03:17:50;4.00;95.20
5134;DHT22;2585;48.696;10.066;2023-11-18T03:20:19;4.00;95.20
5134;DHT22;2585;48.696;10.066;2023-11-18T03:22:47;4.00;95.20
5134;DHT22;2585;48.696;10.066;2023-11-18T03:25:14;4.00;95.20
5134;DHT22;2585;48.696;10.066;2023-11-18T03:27:42;4.00;95.20
5134;DHT22;2585;48.696;10.066;2023-11-18T03:30:09;4.00;95.20
5134;DHT22;2585;48.696;10.066;2023-11-18T03:32:37;3.90;95.20
5134;DHT22;2585;48.696;10.066;2023-11-18T03:35:05;3.90;95.20
5134;DHT22;2585;48.696;10.066;2023-11-18T03:37:39;3.90;95.20
5134;DHT22;2585;48.696;10.066;2023-11-18T03:40:10;4.00;95.20
5134;DHT22;2585;48.696;10.066;2023-11-18T03:42:39;4.00;95.20
5134;DHT22;2585;48.696;10.066;2023-11-18T03:45:07;4.00;95.20
5134;DHT22;2585;48.696;10.066;2023-11-18T03:47:34;4.00;95.20
5134;DHT22;2585;48.696;10.066;2023-11-18T03:50:01;4.00;95.20
5134;DHT22;2585;48.696;10.066;2023-11-18T03:52:28;4.00;95.20
5134;DHT22;2585;48.696;10.066;2023-11-18T03:54:56;4.00;95.20
5134;DHT22;2585;48.696;10.066;2023-11-18T03:57:23;4.00;95.20
5134;DHT22;2585;48.696;10.066;2023-11-18T03:59:49;4.00;95.20
5134;DHT22;2585;48.696;10.066;2023-11-18T04:02:17;4.00;95.20
5134;DHT22;2585;48.696;10.066;2023-11-18T04:04:44;4.00;95.20
5134;DHT22;2585;48.696;10.066;2023-11-18T04:07:11;4.00;95.20
5134;DHT22;2585;48.696;10.066;2023-11-18T04:09:38;4.00;95.20
5134;DHT22;2585;48.696;10.066;2023-11-18T04:12:07;4.00;95.20
5134;DHT22;2585;48.696;10.066;2023-11-18T04:14:35;4.00;95.20
5134;DHT22;2585;48.696;10.066;2023-11-18T04:17:01;4.00;95.20
5134;DHT22;2585;48.696;10.066;2023-11-18T04:19:28;4.00;95.20
5134;DHT22;2585;48.696;10.066;2023-11-18T04:21:55;4.00;95.20
5134;DHT22;2585;48.696;10.066;2023-11-18T04:24:22;4.00;95.20
5134;DHT22;2585;48.696;10.066;2023-11-18T04:26:49;3.90;95.20
5134;DHT22;2585;48.696;10.066;2023-11-18T04:29:16;3.90;95.20
5134;DHT22;2585;48.696;10.066;2023-11-18T04:31:44;3.90;95.20
5134;DHT22;2585;48.696;10.066;2023-11-18T04:34:11;3.90;95.20
5134;DHT22;2585;48.696;10.066;2023-11-18T04:36:41;3.90;95.20
5134;DHT22;2585;48.696;10.066;2023-11-18T04:39:08;4.00;95.20
5134;DHT22;2585;48.696;10.066;2023-11-18T04:41:38;3.90;95.20
5134;DHT22;2585;48.696;10.066;2023-11-18T04:44:05;3.90;95.20
5134;DHT22;2585;48.696;10.066;2023-11-18T04:46:32;3.90;95.20
5134;DHT22;2585;48.696;10.066;2023-11-18T04:48:58;3.90;95.20
5134;DHT22;2585;48.696;10.066;2023-11-18T04:51:26;3.90;95.20
5134;DHT22;2585;48.696;10.066;2023-11-18T04:53:53;3.90;95.20
5134;DHT22;2585;48.696;10.066;2023-11-18T04:56:20;3.90;95.20
5134;DHT22;2585;48.696;10.066;2023-11-18T04:58:48;3.90;95.20
5134;DHT22;2585;48.696;10.066;2023-11-18T05:01:15;4.00;95.20
5134;DHT22;2585;48.696;10.066;2023-11-18T05:03:42;4.00;95.20
5134;DHT22;2585;48.696;10.066;2023-11-18T05:06:09;4.00;95.20
5134;DHT22;2585;48.696;10.066;2023-11-18T05:08:35;4.00;95.20
5134;DHT22;2585;48.696;10.066;2023-11-18T05:11:03;4.00;95.20
5134;DHT22;2585;48.696;10.066;2023-11-18T05:13:31;4.00;95.20
5134;DHT22;2585;48.696;10.066;2023-11-18T05:16:01;4.10;95.30
5134;DHT22;2585;48.696;10.066;2023-11-18T05:18:30;4.00;95.20
5134;DHT22;2585;48.696;10.066;2023-11-18T05:21:02;4.00;95.20
5134;DHT22;2585;48.696;10.066;2023-11-18T05:23:29;4.00;95.20
5134;DHT22;2585;48.696;10.066;2023-11-18T05:25:56;4.00;95.20
5134;DHT22;2585;48.696;10.066;2023-11-18T05:28:23;4.00;95.20
5134;DHT22;2585;48.696;10.066;2023-11-18T05:30:51;4.00;95.20
5134;DHT22;2585;48.696;10.066;2023-11-18T05:33:18;4.00;95.20
5134;DHT22;2585;48.696;10.066;2023-11-18T05:35:46;4.00;95.20
5134;DHT22;2585;48.696;10.066;2023-11-18T05:38:16;4.00;95.20
5134;DHT22;2585;48.696;10.066;2023-11-18T05:40:48;4.00;95.20
5134;DHT22;2585;48.696;10.066;2023-11-18T05:43:31;4.00;95.20
5134;DHT22;2585;48.696;10.066;2023-11-18T05:46:07;4.00;95.20
5134;DHT22;2585;48.696;10.066;2023-11-18T05:48:52;4.00;95.20
5134;DHT22;2585;48.696;10.066;2023-11-18T05:51:21;3.90;95.20
5134;DHT22;2585;48.696;10.066;2023-11-18T05:53:48;4.00;95.20
5134;DHT22;2585;48.696;10.066;2023-11-18T05:56:16;4.00;95.20
5134;DHT22;2585;48.696;10.066;2023-11-18T05:58:46;4.00;95.20
5134;DHT22;2585;48.696;10.066;2023-11-18T06:01:14;4.00;95.20
5134;DHT22;2585;48.696;10.066;2023-11-18T06:03:43;4.00;95.20
5134;DHT22;2585;48.696;10.066;2023-11-18T06:06:12;4.00;95.20
5134;DHT22;2585;48.696;10.066;2023-11-18T06:08:40;4.00;95.20
5134;DHT22;2585;48.696;10.066;2023-11-18T06:11:11;4.00;95.30
5134;DHT22;2585;48.696;10.066;2023-11-18T06:13:49;4.00;95.30
5134;DHT22;2585;48.696;10.066;2023-11-18T06:16:24;4.00;95.30
5134;DHT22;2585;48.696;10.066;2023-11-18T06:18:56;4.00;95.30
5134;DHT22;2585;48.696;10.066;2023-11-18T06:21:25;3.90;95.20
5134;DHT22;2585;48.696;10.066;2023-11-18T06:23:55;3.80;95.20
5134;DHT22;2585;48.696;10.066;2023-11-18T06:26:22;3.80;95.20
5134;DHT22;2585;48.696;10.066;2023-11-18T06:28:51;3.80;95.20
5134;DHT22;2585;48.696;10.066;2023-11-18T06:31:18;3.70;95.20
5134;DHT22;2585;48.696;10.066;2023-11-18T06:33:45;3.60;95.10
5134;DHT22;2585;48.696;10.066;2023-11-18T06:38:41;3.50;95.10
5134;DHT22;2585;48.696;10.066;2023-11-18T06:41:12;3.40;95.10
5134;DHT22;2585;48.696;10.066;2023-11-18T06:43:40;3.40;95.10
5134;DHT22;2585;48.696;10.066;2023-11-18T06:46:29;3.40;95.10
5134;DHT22;2585;48.696;10.066;2023-11-18T06:48:59;3.30;95.00
5134;DHT22;2585;48.696;10.066;2023-11-18T06:51:32;3.30;95.00
5134;DHT22;2585;48.696;10.066;2023-11-18T06:54:02;3.30;95.00
5134;DHT22;2585;48.696;10.066;2023-11-18T06:56:37;3.30;95.00
5134;DHT22;2585;48.696;10.066;2023-11-18T06:59:05;3.40;95.10
5134;DHT22;2585;48.696;10.066;2023-11-18T07:01:36;3.40;95.10
5134;DHT22;2585;48.696;10.066;2023-11-18T07:04:03;3.30;95.00
5134;DHT22;2585;48.696;10.066;2023-11-18T07:06:30;3.30;95.00
5134;DHT22;2585;48.696;10.066;2023-11-18T07:08:57;3.40;95.10
5134;DHT22;2585;48.696;10.066;2023-11-18T07:11:27;3.40;95.10
5134;DHT22;2585;48.696;10.066;2023-11-18T07:13:54;3.30;95.00
5134;DHT22;2585;48.696;10.066;2023-11-18T07:16:26;3.30;95.00
5134;DHT22;2585;48.696;10.066;2023-11-18T07:18:53;3.30;95.00
5134;DHT22;2585;48.696;10.066;2023-11-18T07:21:20;3.30;95.00
5134;DHT22;2585;48.696;10.066;2023-11-18T07:23:47;3.30;95.00
5134;DHT22;2585;48.696;10.066;2023-11-18T07:26:13;3.30;95.00
5134;DHT22;2585;48.696;10.066;2023-11-18T07:28:41;3.30;95.00
5134;DHT22;2585;48.696;10.066;2023-11-18T07:31:08;3.30;95.00
5134;DHT22;2585;48.696;10.066;2023-11-18T07:33:35;3.20;95.00
5134;DHT22;2585;48.696;10.066;2023-11-18T07:36:02;3.20;95.00
5134;DHT22;2585;48.696;10.066;2023-11-18T07:38:32;3.30;95.00
5134;DHT22;2585;48.696;10.066;2023-11-18T07:41:01;3.20;95.00
5134;DHT22;2585;48.696;10.066;2023-11-18T07:43:29;3.20;95.00
5134;DHT22;2585;48.696;10.066;2023-11-18T07:45:57;3.30;95.00
5134;DHT22;2585;48.696;10.066;2023-11-18T07:48:24;3.30;95.00
5134;DHT22;2585;48.696;10.066;2023-11-18T07:50:51;3.30;95.00
5134;DHT22;2585;48.696;10.066;2023-11-18T07:53:17;3.40;95.00
5134;DHT22;2585;48.696;10.066;2023-11-18T07:55:44;3.40;95.00
5134;DHT22;2585;48.696;10.066;2023-11-18T07:58:12;3.50;95.10
5134;DHT22;2585;48.696;10.066;2023-11-18T08:00:42;3.50;95.10
5134;DHT22;2585;48.696;10.066;2023-11-18T08:03:09;3.50;95.10
5134;DHT22;2585;48.696;10.066;2023-11-18T08:05:44;3.60;95.10
5134;DHT22;2585;48.696;10.066;2023-11-18T08:08:14;3.70;95.10
5134;DHT22;2585;48.696;10.066;2023-11-18T08:10:44;3.80;95.20
5134;DHT22;2585;48.696;10.066;2023-11-18T08:13:11;3.90;95.20
5134;DHT22;2585;48.696;10.066;2023-11-18T08:15:42;3.90;95.20
5134;DHT22;2585;48.696;10.066;2023-11-18T08:18:12;4.00;95.20
5134;DHT22;2585;48.696;10.066;2023-11-18T08:20:42;4.00;95.20
5134;DHT22;2585;48.696;10.066;2023-11-18T08:23:26;4.10;95.30
5134;DHT22;2585;48.696;10.066;2023-11-18T08:25:55;4.10;95.30
5134;DHT22;2585;48.696;10.066;2023-11-18T08:28:22;4.10;95.30
5134;DHT22;2585;48.696;10.066;2023-11-18T08:30:49;4.20;95.30
5134;DHT22;2585;48.696;10.066;2023-11-18T08:33:19;4.20;95.30
5134;DHT22;2585;48.696;10.066;2023-11-18T08:35:46;4.20;95.30
5134;DHT22;2585;48.696;10.066;2023-11-18T08:38:13;4.20;95.30
5134;DHT22;2585;48.696;10.066;2023-11-18T08:40:40;4.20;95.30
5134;DHT22;2585;48.696;10.066;2023-11-18T08:43:07;4.10;95.20
5134;DHT22;2585;48.696;10.066;2023-11-18T08:45:34;4.20;95.30
5134;DHT22;2585;48.696;10.066;2023-11-18T08:48:04;4.40;95.30
5134;DHT22;2585;48.696;10.066;2023-11-18T08:50:36;4.30;95.30
5134;DHT22;2585;48.696;10.066;2023-11-18T08:53:03;4.30;95.30
5134;DHT22;2585;48.696;10.066;2023-11-18T08:55:32;4.40;95.30
5134;DHT22;2585;48.696;10.066;2023-11-18T08:58:07;4.50;95.30
5134;DHT22;2585;48.696;10.066;2023-11-18T09:00:48;4.60;95.40
5134;DHT22;2585;48.696;10.066;2023-11-18T09:03:26;4.70;95.40
5134;DHT22;2585;48.696;10.066;2023-11-18T09:06:04;4.80;95.40
5134;DHT22;2585;48.696;10.066;2023-11-18T09:08:47;4.80;95.40
5134;DHT22;2585;48.696;10.066;2023-11-18T09:11:25;4.80;95.40
5134;DHT22;2585;48.696;10.066;2023-11-18T09:13:59;4.80;95.40
5134;DHT22;2585;48.696;10.066;2023-11-18T09:16:28;4.90;95.40
5134;DHT22;2585;48.696;10.066;2023-11-18T09:19:00;5.10;95.50
5134;DHT22;2585;48.696;10.066;2023-11-18T09:21:29;5.10;95.50
5134;DHT22;2585;48.696;10.066;2023-11-18T09:23:57;5.20;95.50
5134;DHT22;2585;48.696;10.066;2023-11-18T09:26:24;5.40;95.50
5134;DHT22;2585;48.696;10.066;2023-11-18T09:28:54;5.60;95.60
5134;DHT22;2585;48.696;10.066;2023-11-18T09:31:22;5.70;95.60
5134;DHT22;2585;48.696;10.066;2023-11-18T09:33:49;5.60;95.50
5134;DHT22;2585;48.696;10.066;2023-11-18T09:36:20;5.80;95.60
5134;DHT22;2585;48.696;10.066;2023-11-18T09:38:49;5.70;95.50
5134;DHT22;2585;48.696;10.066;2023-11-18T09:41:22;5.60;95.50
5134;DHT22;2585;48.696;10.066;2023-11-18T09:43:51;5.60;95.50
5134;DHT22;2585;48.696;10.066;2023-11-18T09:46:23;6.00;95.60
5134;DHT22;2585;48.696;10.066;2023-11-18T09:49:06;6.10;95.60
5134;DHT22;2585;48.696;10.066;2023-11-18T09:51:43;6.30;91.00
5134;DHT22;2585;48.696;10.066;2023-11-18T09:57:11;6.50;91.00
5134;DHT22;2585;48.696;10.066;2023-11-18T10:02:25;6.40;90.90
5134;DHT22;2585;48.696;10.066;2023-11-18T10:04:53;6.30;90.90
5134;DHT22;2585;48.696;10.066;2023-11-18T10:07:25;6.30;90.90
5134;DHT22;2585;48.696;10.066;2023-11-18T10:09:59;6.50;90.90
5134;DHT22;2585;48.696;10.066;2023-11-18T10:12:28;6.60;91.00
5134;DHT22;2585;48.696;10.066;2023-11-18T10:14:56;6.70;91.00
5134;DHT22;2585;48.696;10.066;2023-11-18T10:17:25;6.70;91.00
5134;DHT22;2585;48.696;10.066;2023-11-18T10:19:57;6.60;90.90
5134;DHT22;2585;48.696;10.066;2023-11-18T10:22:27;6.50;90.80
5134;DHT22;2585;48.696;10.066;2023-11-18T10:24:57;6.40;90.80
5134;DHT22;2585;48.696;10.066;2023-11-18T10:27:25;6.40;90.80
5134;DHT22;2585;48.696;10.066;2023-11-18T10:29:56;6.40;90.80
5134;DHT22;2585;48.696;10.066;2023-11-18T10:32:24;6.30;90.70
5134;DHT22;2585;48.696;10.066;2023-11-18T10:34:58;6.30;90.70
5134;DHT22;2585;48.696;10.066;2023-11-18T10:37:25;6.60;90.80
5134;DHT22;2585;48.696;10.066;2023-11-18T10:39:52;7.00;90.90
5134;DHT22;2585;48.696;10.066;2023-11-18T10:42:19;7.30;90.90
5134;DHT22;2585;48.696;10.066;2023-11-18T10:45:05;7.40;90.90
5134;DHT22;2585;48.696;10.066;2023-11-18T10:47:34;7.70;91.00
5134;DHT22;2585;48.696;10.066;2023-11-18T10:50:08;7.60;90.90
5134;DHT22;2585;48.696;10.066;2023-11-18T10:52:39;7.50;90.70
5134;DHT22;2585;48.696;10.066;2023-11-18T10:55:08;7.60;90.70
5134;DHT22;2585;48.696;10.066;2023-11-18T10:57:40;7.50;90.60
5134;DHT22;2585;48.696;10.066;2023-11-18T11:00:09;7.30;90.40
5134;DHT22;2585;48.696;10.066;2023-11-18T11:02:40;7.20;90.40
5134;DHT22;2585;48.696;10.066;2023-11-18T11:05:11;7.00;90.20
5134;DHT22;2585;48.696;10.066;2023-11-18T11:07:48;7.10;90.30
5134;DHT22;2585;48.696;10.066;2023-11-18T11:10:16;7.20;90.30
5134;DHT22;2585;48.696;10.066;2023-11-18T11:12:50;7.10;90.10
5134;DHT22;2585;48.696;10.066;2023-11-18T11:15:31;7.10;90.10
5134;DHT22;2585;48.696;10.066;2023-11-18T11:18:19;7.00;90.00
5134;DHT22;2585;48.696;10.066;2023-11-18T11:21:28;6.90;89.80
5134;DHT22;2585;48.696;10.066;2023-11-18T11:24:04;6.80;89.60
5134;DHT22;2585;48.696;10.066;2023-11-18T11:29:18;6.80;89.50
5134;DHT22;2585;48.696;10.066;2023-11-18T11:32:00;6.70;89.20
5134;DHT22;2585;48.696;10.066;2023-11-18T11:34:30;6.60;89.00
5134;DHT22;2585;48.696;10.066;2023-11-18T11:36:59;6.60;89.10
5134;DHT22;2585;48.696;10.066;2023-11-18T11:39:28;6.50;88.80
5134;DHT22;2585;48.696;10.066;2023-11-18T11:41:57;6.50;88.70
5134;DHT22;2585;48.696;10.066;2023-11-18T11:44:26;6.60;88.90
5134;DHT22;2585;48.696;10.066;2023-11-18T11:46:59;6.60;88.50
5134;DHT22;2585;48.696;10.066;2023-11-18T11:49:39;6.60;88.30
5134;DHT22;2585;48.696;10.066;2023-11-18T11:52:18;6.50;87.90
5134;DHT22;2585;48.696;10.066;2023-11-18T11:55:05;6.50;87.60
5134;DHT22;2585;48.696;10.066;2023-11-18T11:57:39;6.50;87.70
5134;DHT22;2585;48.696;10.066;2023-11-18T12:00:11;6.50;87.60
5134;DHT22;2585;48.696;10.066;2023-11-18T12:02:49;6.40;87.20
5134;DHT22;2585;48.696;10.066;2023-11-18T12:05:17;6.30;86.90
5134;DHT22;2585;48.696;10.066;2023-11-18T12:07:53;6.40;87.20
5134;DHT22;2585;48.696;10.066;2023-11-18T12:10:27;6.40;86.80
5134;DHT22;2585;48.696;10.066;2023-11-18T12:13:11;6.40;86.80
5134;DHT22;2585;48.696;10.066;2023-11-18T12:15:54;6.50;87.00
5134;DHT22;2585;48.696;10.066;2023-11-18T12:18:24;6.60;86.90
5134;DHT22;2585;48.696;10.066;2023-11-18T12:20:52;6.60;86.60
5134;DHT22;2585;48.696;10.066;2023-11-18T12:23:22;6.60;86.40
5134;DHT22;2585;48.696;10.066;2023-11-18T12:25:52;6.60;86.10
5134;DHT22;2585;48.696;10.066;2023-11-18T12:28:28;6.60;85.30
5134;DHT22;2585;48.696;10.066;2023-11-18T12:31:04;6.60;85.00
5134;DHT22;2585;48.696;10.066;2023-11-18T12:42:05;6.20;83.10
5134;DHT22;2585;48.696;10.066;2023-11-18T12:45:07;6.30;83.40
5134;DHT22;2585;48.696;10.066;2023-11-18T12:47:43;6.20;82.70
5134;DHT22;2585;48.696;10.066;2023-11-18T12:50:12;6.10;90.80
5134;DHT22;2585;48.696;10.066;2023-11-18T12:52:51;6.10;90.90
5134;DHT22;2585;48.696;10.066;2023-11-18T12:55:20;6.10;90.90
5134;DHT22;2585;48.696;10.066;2023-11-18T12:57:47;6.10;90.90
5134;DHT22;2585;48.696;10.066;2023-11-18T13:00:16;6.00;90.70
5134;DHT22;2585;48.696;10.066;2023-11-18T13:02:54;5.90;90.40
5134;DHT22;2585;48.696;10.066;2023-11-18T13:05:21;5.90;90.40
5134;DHT22;2585;48.696;10.066;2023-11-18T13:07:48;5.80;90.10
5134;DHT22;2585;48.696;10.066;2023-11-18T13:10:16;5.80;90.20
5134;DHT22;2585;48.696;10.066;2023-11-18T13:12:44;5.80;90.20
5134;DHT22;2585;48.696;10.066;2023-11-18T13:15:12;5.80;90.30
5134;DHT22;2585;48.696;10.066;2023-11-18T13:17:39;5.80;90.30
5134;DHT22;2585;48.696;10.066;2023-11-18T13:20:14;5.70;90.20
5134;DHT22;2585;48.696;10.066;2023-11-18T13:22:44;5.60;90.00
5134;DHT22;2585;48.696;10.066;2023-11-18T13:25:14;5.50;89.40
5134;DHT22;2585;48.696;10.066;2023-11-18T13:27:44;5.50;89.50
5134;DHT22;2585;48.696;10.066;2023-11-18T13:30:11;5.50;89.50
5134;DHT22;2585;48.696;10.066;2023-11-18T13:32:41;5.50;89.50
5134;DHT22;2585;48.696;10.066;2023-11-18T13:35:12;5.40;89.40
5134;DHT22;2585;48.696;10.066;2023-11-18T13:37:40;5.30;89.00
5134;DHT22;2585;48.696;10.066;2023-11-18T13:40:11;5.30;89.30
5134;DHT22;2585;48.696;10.066;2023-11-18T13:42:39;5.30;89.20
5134;DHT22;2585;48.696;10.066;2023-11-18T13:45:11;5.30;89.00
5134;DHT22;2585;48.696;10.066;2023-11-18T13:48:00;5.20;88.80
5134;DHT22;2585;48.696;10.066;2023-11-18T13:50:27;5.20;88.90
5134;DHT22;2585;48.696;10.066;2023-11-18T13:52:56;5.30;89.10
5134;DHT22;2585;48.696;10.066;2023-11-18T13:55:24;5.30;89.20
5134;DHT22;2585;48.696;10.066;2023-11-18T13:57:55;5.20;89.10
5134;DHT22;2585;48.696;10.066;2023-11-18T14:00:25;5.20;88.80
5134;DHT22;2585;48.696;10.066;2023-11-18T14:02:58;5.20;88.90
5134;DHT22;2585;48.696;10.066;2023-11-18T14:05:26;5.10;89.10
5134;DHT22;2585;48.696;10.066;2023-11-18T14:07:54;5.10;88.80
5134;DHT22;2585;48.696;10.066;2023-11-18T14:10:26;5.10;88.70
5134;DHT22;2585;48.696;10.066;2023-11-18T14:13:06;5.10;88.80
5134;DHT22;2585;48.696;10.066;2023-11-18T14:15:38;5.00;88.60
5134;DHT22;2585;48.696;10.066;2023-11-18T14:18:07;5.10;88.50
5134;DHT22;2585;48.696;10.066;2023-11-18T14:20:37;5.10;88.80
5134;DHT22;2585;48.696;10.066;2023-11-18T14:23:04;5.10;89.20
5134;DHT22;2585;48.696;10.066;2023-11-18T14:25:32;5.20;89.30
5134;DHT22;2585;48.696;10.066;2023-11-18T14:27:59;5.20;89.60
5134;DHT22;2585;48.696;10.066;2023-11-18T14:30:26;5.20;89.80
5134;DHT22;2585;48.696;10.066;2023-11-18T14:32:53;5.20;89.70
5134;DHT22;2585;48.696;10.066;2023-11-18T14:35:20;5.20;89.30
5134;DHT22;2585;48.696;10.066;2023-11-18T14:37:47;5.20;89.30
5134;DHT22;2585;48.696;10.066;2023-11-18T14:40:15;5.20;89.30
5134;DHT22;2585;48.696;10.066;2023-11-18T14:42:45;5.20;89.30
5134;DHT22;2585;48.696;10.066;2023-11-18T14:45:15;5.10;89.20
5134;DHT22;2585;48.696;10.066;2023-11-18T14:47:44;5.20;89.20
5134;DHT22;2585;48.696;10.066;2023-11-18T14:50:23;5.20;89.10
5134;DHT22;2585;48.696;10.066;2023-11-18T14:52:52;5.20;89.20
5134;DHT22;2585;48.696;10.066;2023-11-18T14:55:26;5.20;89.50
5134;DHT22;2585;48.696;10.066;2023-11-18T14:57:54;5.20;90.10
5134;DHT22;2585;48.696;10.066;2023-11-18T15:00:22;5.10;90.10
5134;DHT22;2585;48.696;10.066;2023-11-18T15:02:52;5.20;90.20
5134;DHT22;2585;48.696;10.066;2023-11-18T15:05:24;5.20;90.10
5134;DHT22;2585;48.696;10.066;2023-11-18T15:07:53;5.10;89.60
5134;DHT22;2585;48.696;10.066;2023-11-18T15:10:25;5.10;89.60
5134;DHT22;2585;48.696;10.066;2023-11-18T15:12:54;5.10;89.70
5134;DHT22;2585;48.696;10.066;2023-11-18T15:15:22;5.20;89.90
5134;DHT22;2585;48.696;10.066;2023-11-18T15:17:49;5.10;89.90
5134;DHT22;2585;48.696;10.066;2023-11-18T15:20:17;5.10;90.00
5134;DHT22;2585;48.696;10.066;2023-11-18T15:22:50;5.10;90.10
5134;DHT22;2585;48.696;10.066;2023-11-18T15:25:17;5.10;90.30
5134;DHT22;2585;48.696;10.066;2023-11-18T15:27:44;5.10;90.30
5134;DHT22;2585;48.696;10.066;2023-11-18T15:30:13;5.10;90.20
5134;DHT22;2585;48.696;10.066;2023-11-18T15:32:41;5.10;90.30
5134;DHT22;2585;48.696;10.066;2023-11-18T15:35:09;5.00;90.40
5134;DHT22;2585;48.696;10.066;2023-11-18T15:37:38;5.10;90.40
5134;DHT22;2585;48.696;10.066;2023-11-18T15:40:09;5.10;90.60
5134;DHT22;2585;48.696;10.066;2023-11-18T15:42:38;5.10;90.60
5134;DHT22;2585;48.696;10.066;2023-11-18T15:45:09;5.10;90.70
5134;DHT22;2585;48.696;10.066;2023-11-18T15:47:41;5.10;90.80
5134;DHT22;2585;48.696;10.066;2023-11-18T15:50:10;5.10;91.00
5134;DHT22;2585;48.696;10.066;2023-11-18T15:52:49;5.10;91.00
5134;DHT22;2585;48.696;10.066;2023-11-18T15:55:16;5.10;91.20
5134;DHT22;2585;48.696;10.066;2023-11-18T15:57:45;5.10;91.30
5134;DHT22;2585;48.696;10.066;2023-11-18T16:00:23;5.10;91.30
5134;DHT22;2585;48.696;10.066;2023-11-18T16:02:55;5.10;91.40
5134;DHT22;2585;48.696;10.066;2023-11-18T16:05:28;5.10;91.40
5134;DHT22;2585;48.696;10.066;2023-11-18T16:07:55;5.10;91.50
5134;DHT22;2585;48.696;10.066;2023-11-18T16:10:23;5.10;91.60
5134;DHT22;2585;48.696;10.066;2023-11-18T16:12:52;5.10;91.70
5134;DHT22;2585;48.696;10.066;2023-11-18T16:15:23;5.10;91.70
5134;DHT22;2585;48.696;10.066;2023-11-18T16:17:52;5.10;91.80
5134;DHT22;2585;48.696;10.066;2023-11-18T16:20:21;5.10;91.90
5134;DHT22;2585;48.696;10.066;2023-11-18T16:22:50;5.10;91.90
5134;DHT22;2585;48.696;10.066;2023-11-18T16:25:22;5.10;91.90
5134;DHT22;2585;48.696;10.066;2023-11-18T16:27:51;5.10;91.90
5134;DHT22;2585;48.696;10.066;2023-11-18T16:30:20;5.10;92.00
5134;DHT22;2585;48.696;10.066;2023-11-18T16:32:51;5.10;92.00
5134;DHT22;2585;48.696;10.066;2023-11-18T16:35:19;5.10;92.00
5134;DHT22;2585;48.696;10.066;2023-11-18T16:37:47;5.10;92.00
5134;DHT22;2585;48.696;10.066;2023-11-18T16:40:15;5.10;92.00